Time;durP1;ratioP1;P1;durP2;ratioP2;P2;SDS_P1;SDS_P2;PMS_P1;PMS_P2;Temp;Humidity;BMP_temperature;BMP_pressure;BME280_temperature;BME280_humidity;BME280_pressure;Samples;Min_cycle;Max_cycle;Signal;HPM_P1;HPM_P2
2024/01/27 00:01:59;;;;;;;;;;;11.00;99.90;;;;;;5093525;28;19909;-68
2024/01/27 00:04:25;;;;;;;;;;;11.00;99.90;;;;;;5094671;28;20253;-68
2024/01/27 00:06:51;;;;;;;;;;;11.00;99.90;;;;;;5094927;28;19969;-67
2024/01/27 00:09:17;;;;;;;;;;;11.00;99.90;;;;;;5094523;28;19927;-69
2024/01/27 00:11:42;;;;;;;;;;;10.90;99.90;;;;;;5094696;28;20340;-69
2024/01/27 00:14:08;;;;;;;;;;;10.90;99.90;;;;;;5094739;28;19935;-69
2024/01/27 00:16:34;;;;;;;;;;;10.90;99.90;;;;;;5093199;28;19913;-69
2024/01/27 00:19:00;;;;;;;;;;;10.90;99.90;;;;;;5093303;28;19919;-69
2024/01/27 00:21:26;;;;;;;;;;;10.90;99.90;;;;;;5077108;28;19909;-70
2024/01/27 00:23:52;;;;;;;;;;;11.00;99.90;;;;;;5074064;28;19916;-68
2024/01/27 00:26:17;;;;;;;;;;;11.00;99.90;;;;;;5074109;28;20371;-68
2024/01/27 00:28:43;;;;;;;;;;;11.00;99.90;;;;;;5074264;28;19924;-68
2024/01/27 00:31:09;;;;;;;;;;;11.10;99.90;;;;;;5073941;28;20108;-67
2024/01/27 00:33:36;;;;;;;;;;;11.10;99.90;;;;;;5073923;28;19936;-68
2024/01/27 00:36:02;;;;;;;;;;;11.10;99.90;;;;;;5073796;28;19951;-68
2024/01/27 00:38:28;;;;;;;;;;;11.10;99.90;;;;;;5073826;28;19995;-69
2024/01/27 00:40:54;;;;;;;;;;;11.10;99.90;;;;;;5073923;28;20360;-68
2024/01/27 00:43:19;;;;;;;;;;;11.10;99.90;;;;;;5073927;28;19909;-67
2024/01/27 00:45:45;;;;;;;;;;;11.00;99.90;;;;;;5073753;28;19928;-68
2024/01/27 00:48:11;;;;;;;;;;;11.00;99.90;;;;;;5073463;28;20300;-68
2024/01/27 00:50:37;;;;;;;;;;;10.90;99.90;;;;;;5084271;28;19908;-68
2024/01/27 00:53:07;;;;;;;;;;;10.90;99.90;;;;;;5093609;28;19916;-67
2024/01/27 00:55:33;;;;;;;;;;;10.90;99.90;;;;;;5093606;28;20003;-67
2024/01/27 00:57:59;;;;;;;;;;;10.90;99.90;;;;;;5093522;28;19969;-67
2024/01/27 01:00:25;;;;;;;;;;;10.80;99.90;;;;;;5093737;28;19912;-69
2024/01/27 01:02:51;;;;;;;;;;;10.80;99.90;;;;;;5093529;28;19936;-67
2024/01/27 01:05:17;;;;;;;;;;;10.80;99.90;;;;;;5093299;28;20049;-68
2024/01/27 01:07:43;;;;;;;;;;;10.80;99.90;;;;;;5091592;28;20321;-69
2024/01/27 01:10:09;;;;;;;;;;;10.70;99.90;;;;;;5093297;28;19911;-69
2024/01/27 01:12:34;;;;;;;;;;;10.80;99.90;;;;;;5093055;28;19916;-69
2024/01/27 01:15:00;;;;;;;;;;;10.80;99.90;;;;;;5091594;28;20071;-67
2024/01/27 01:17:26;;;;;;;;;;;10.80;99.90;;;;;;5091255;28;19915;-68
2024/01/27 01:19:56;;;;;;;;;;;10.80;99.90;;;;;;5091538;28;19908;-65
2024/01/27 01:22:22;;;;;;;;;;;10.90;99.90;;;;;;5093363;28;19918;-68
2024/01/27 01:24:47;;;;;;;;;;;11.00;99.90;;;;;;5091076;28;19999;-68
2024/01/27 01:27:13;;;;;;;;;;;10.90;99.90;;;;;;5092976;28;19908;-68
2024/01/27 01:29:42;;;;;;;;;;;10.90;99.90;;;;;;5092894;28;19912;-68
2024/01/27 01:32:09;;;;;;;;;;;10.80;99.90;;;;;;5092902;28;19916;-68
2024/01/27 01:34:35;;;;;;;;;;;10.80;99.90;;;;;;5092888;28;20002;-67
2024/01/27 01:37:02;;;;;;;;;;;10.80;99.90;;;;;;5092885;28;19968;-68
2024/01/27 01:39:30;;;;;;;;;;;10.90;99.90;;;;;;5092878;28;19908;-68
2024/01/27 01:41:55;;;;;;;;;;;10.90;99.90;;;;;;5092837;28;20010;-68
2024/01/27 01:44:21;;;;;;;;;;;10.90;99.90;;;;;;5091105;28;19981;-67
2024/01/27 01:46:48;;;;;;;;;;;10.90;99.90;;;;;;5092756;28;19912;-68
2024/01/27 01:49:14;;;;;;;;;;;10.80;99.90;;;;;;5090977;28;19908;-68
2024/01/27 01:51:42;;;;;;;;;;;10.80;99.90;;;;;;5073493;28;19924;-69
2024/01/27 01:54:08;;;;;;;;;;;10.80;99.90;;;;;;5072121;28;20361;-68
2024/01/27 01:56:34;;;;;;;;;;;10.80;99.90;;;;;;5072415;28;19916;-68
2024/01/27 01:59:00;;;;;;;;;;;10.80;99.90;;;;;;5071181;28;20381;-68
2024/01/27 02:01:26;;;;;;;;;;;10.80;99.90;;;;;;5072441;28;19931;-69
2024/01/27 02:03:52;;;;;;;;;;;10.80;99.90;;;;;;5072356;28;20433;-68
2024/01/27 02:06:19;;;;;;;;;;;10.80;99.90;;;;;;5072293;28;19908;-69
2024/01/27 02:08:45;;;;;;;;;;;10.70;99.90;;;;;;5071969;28;19924;-69
2024/01/27 02:11:11;;;;;;;;;;;10.70;99.90;;;;;;5072242;28;19909;-68
2024/01/27 02:13:36;;;;;;;;;;;10.70;99.90;;;;;;5071904;28;19959;-69
2024/01/27 02:16:02;;;;;;;;;;;10.60;99.90;;;;;;5071549;28;20003;-68
2024/01/27 02:18:28;;;;;;;;;;;10.60;99.90;;;;;;5071994;28;19955;-69
2024/01/27 02:20:54;;;;;;;;;;;10.60;99.90;;;;;;5084909;28;19908;-69
2024/01/27 02:23:20;;;;;;;;;;;10.60;99.90;;;;;;5092151;28;19908;-69
2024/01/27 02:25:45;;;;;;;;;;;10.60;99.90;;;;;;5091824;28;19957;-69
2024/01/27 02:28:13;;;;;;;;;;;10.60;99.90;;;;;;5092083;28;19912;-68
2024/01/27 02:30:39;;;;;;;;;;;10.70;99.90;;;;;;5092065;28;20276;-68
2024/01/27 02:33:05;;;;;;;;;;;10.60;99.90;;;;;;5091892;28;19915;-69
2024/01/27 02:35:31;;;;;;;;;;;10.60;99.90;;;;;;5091541;28;19944;-69
2024/01/27 02:37:56;;;;;;;;;;;10.60;99.90;;;;;;5090262;28;19909;-69
2024/01/27 02:40:23;;;;;;;;;;;10.50;99.90;;;;;;5091688;28;19914;-68
2024/01/27 02:42:49;;;;;;;;;;;10.50;99.90;;;;;;5090729;28;19912;-69
2024/01/27 02:45:15;;;;;;;;;;;10.60;99.90;;;;;;5091427;28;19966;-69
2024/01/27 02:47:41;;;;;;;;;;;10.60;99.90;;;;;;5089935;28;19908;-68
2024/01/27 02:50:07;;;;;;;;;;;10.50;99.90;;;;;;5089928;28;19908;-69
2024/01/27 02:52:33;;;;;;;;;;;10.50;99.90;;;;;;5090052;28;19959;-69
2024/01/27 02:55:01;;;;;;;;;;;10.50;99.90;;;;;;5090946;28;20005;-69
2024/01/27 02:57:27;;;;;;;;;;;10.50;99.90;;;;;;5091436;28;19926;-68
2024/01/27 02:59:54;;;;;;;;;;;10.40;99.90;;;;;;5091515;28;20077;-69
2024/01/27 03:02:20;;;;;;;;;;;10.40;99.90;;;;;;5090101;28;19908;-69
2024/01/27 03:04:46;;;;;;;;;;;10.40;99.90;;;;;;5089997;28;19954;-69
2024/01/27 03:07:13;;;;;;;;;;;10.40;99.90;;;;;;5089561;28;20003;-69
2024/01/27 03:09:39;;;;;;;;;;;10.40;99.90;;;;;;5072004;28;19933;-69
2024/01/27 03:12:05;;;;;;;;;;;10.40;99.90;;;;;;5081062;28;20007;-68
2024/01/27 03:14:31;;;;;;;;;;;10.40;99.90;;;;;;5091060;28;20226;-69
2024/01/27 03:16:56;;;;;;;;;;;10.40;99.90;;;;;;5091049;28;19908;-69
2024/01/27 03:19:22;;;;;;;;;;;10.40;99.90;;;;;;5089446;28;20133;-68
2024/01/27 03:21:48;;;;;;;;;;;10.50;99.90;;;;;;5089575;28;19908;-70
2024/01/27 03:24:14;;;;;;;;;;;10.40;99.90;;;;;;5090869;28;19915;-69
2024/01/27 03:26:39;;;;;;;;;;;10.40;99.90;;;;;;5090050;28;19930;-69
2024/01/27 03:29:05;;;;;;;;;;;10.40;99.90;;;;;;5090524;28;20002;-70
2024/01/27 03:31:31;;;;;;;;;;;10.50;99.90;;;;;;5090556;28;20303;-69
2024/01/27 03:34:01;;;;;;;;;;;10.50;99.90;;;;;;5090475;28;19963;-67
2024/01/27 03:36:27;;;;;;;;;;;10.50;99.90;;;;;;5090634;28;20014;-70
2024/01/27 03:38:53;;;;;;;;;;;10.50;99.90;;;;;;5090359;28;19962;-68
2024/01/27 03:41:19;;;;;;;;;;;10.50;99.90;;;;;;5090443;28;20194;-69
2024/01/27 03:43:45;;;;;;;;;;;10.60;99.90;;;;;;5090343;28;19958;-69
2024/01/27 03:46:10;;;;;;;;;;;10.60;99.90;;;;;;5088925;28;19958;-69
2024/01/27 03:48:36;;;;;;;;;;;10.60;99.90;;;;;;5090390;28;20237;-69
2024/01/27 03:51:02;;;;;;;;;;;10.60;99.90;;;;;;5090442;28;19966;-69
2024/01/27 03:53:28;;;;;;;;;;;10.60;99.90;;;;;;5089988;28;20372;-69
2024/01/27 03:55:54;;;;;;;;;;;10.70;99.90;;;;;;5090244;28;19919;-69
2024/01/27 03:58:20;;;;;;;;;;;10.70;99.90;;;;;;5089172;28;19915;-69
2024/01/27 04:00:46;;;;;;;;;;;10.70;99.90;;;;;;5090223;28;19912;-69
2024/01/27 04:03:12;;;;;;;;;;;10.70;99.90;;;;;;5090093;28;19931;-69
2024/01/27 04:05:38;;;;;;;;;;;10.80;99.90;;;;;;5090127;28;19915;-69
2024/01/27 04:08:06;;;;;;;;;;;10.70;99.90;;;;;;5090628;28;19920;-69
2024/01/27 04:10:32;;;;;;;;;;;10.70;99.90;;;;;;5090778;28;19979;-69
2024/01/27 04:12:58;;;;;;;;;;;10.70;99.90;;;;;;5090728;28;19971;-69
2024/01/27 04:15:24;;;;;;;;;;;10.60;99.90;;;;;;5090609;28;19916;-70
2024/01/27 04:17:50;;;;;;;;;;;10.70;99.90;;;;;;5090582;28;20421;-69
2024/01/27 04:20:16;;;;;;;;;;;10.70;99.90;;;;;;5090393;28;20013;-69
2024/01/27 04:22:42;;;;;;;;;;;10.70;99.90;;;;;;5075095;28;19912;-68
2024/01/27 04:25:08;;;;;;;;;;;10.70;99.90;;;;;;5071252;28;19909;-69
2024/01/27 04:27:37;;;;;;;;;;;10.70;99.90;;;;;;5080279;28;19923;-69
2024/01/27 04:30:03;;;;;;;;;;;10.70;99.90;;;;;;5091985;28;20336;-69
2024/01/27 04:32:29;;;;;;;;;;;10.60;99.90;;;;;;5091743;28;19919;-68
2024/01/27 04:34:55;;;;;;;;;;;10.60;99.90;;;;;;5090319;28;20321;-69
2024/01/27 04:37:21;;;;;;;;;;;10.60;99.90;;;;;;5092336;28;19922;-69
2024/01/27 04:39:46;;;;;;;;;;;10.70;99.90;;;;;;5095455;28;20256;-69
2024/01/27 04:42:12;;;;;;;;;;;10.70;99.90;;;;;;5095005;28;19912;-69
2024/01/27 04:44:40;;;;;;;;;;;10.70;99.90;;;;;;5095034;28;19908;-69
2024/01/27 04:47:06;;;;;;;;;;;10.70;99.90;;;;;;5094858;28;20386;-69
2024/01/27 04:49:33;;;;;;;;;;;10.80;99.90;;;;;;5091952;28;19927;-67
2024/01/27 04:51:59;;;;;;;;;;;10.70;99.90;;;;;;5074863;28;19920;-69
2024/01/27 04:54:25;;;;;;;;;;;10.70;99.90;;;;;;5074624;28;19916;-67
2024/01/27 04:56:51;;;;;;;;;;;10.80;99.90;;;;;;5074843;28;20007;-68
2024/01/27 04:59:17;;;;;;;;;;;10.80;99.90;;;;;;5074797;28;20345;-68
2024/01/27 05:01:46;;;;;;;;;;;10.80;99.90;;;;;;5073457;28;20349;-69
2024/01/27 05:04:12;;;;;;;;;;;10.90;99.90;;;;;;5073437;28;19920;-69
2024/01/27 05:06:40;;;;;;;;;;;11.00;99.90;;;;;;5075090;28;19988;-68
2024/01/27 05:09:07;;;;;;;;;;;11.00;99.90;;;;;;5074366;28;19924;-69
2024/01/27 05:11:33;;;;;;;;;;;11.10;99.90;;;;;;5074724;28;19916;-69
2024/01/27 05:13:59;;;;;;;;;;;11.10;99.90;;;;;;5081808;28;19909;-69
2024/01/27 05:16:25;;;;;;;;;;;11.10;99.90;;;;;;5095086;28;20321;-69
2024/01/27 05:18:51;;;;;;;;;;;11.20;99.90;;;;;;5095360;28;20217;-69
2024/01/27 05:21:18;;;;;;;;;;;11.20;99.90;;;;;;5083475;28;20003;-69
2024/01/27 05:23:44;;;;;;;;;;;11.20;99.90;;;;;;5095521;28;20140;-69
2024/01/27 05:26:13;;;;;;;;;;;11.20;99.90;;;;;;5093877;28;19989;-69
2024/01/27 05:28:39;;;;;;;;;;;11.20;99.90;;;;;;5095146;28;19916;-69
2024/01/27 05:31:08;;;;;;;;;;;11.30;99.90;;;;;;5095308;28;19908;-70
2024/01/27 05:33:35;;;;;;;;;;;11.30;99.90;;;;;;5095225;28;19916;-69
2024/01/27 05:36:01;;;;;;;;;;;11.40;99.90;;;;;;5095253;28;19908;-69
2024/01/27 05:38:28;;;;;;;;;;;11.40;99.90;;;;;;5095170;28;20371;-69
2024/01/27 05:40:54;;;;;;;;;;;11.30;99.90;;;;;;5093960;28;19954;-68
2024/01/27 05:43:20;;;;;;;;;;;11.30;99.90;;;;;;5095146;28;20319;-63
2024/01/27 05:45:46;;;;;;;;;;;11.30;99.90;;;;;;5082838;28;19909;-67
2024/01/27 05:48:11;;;;;;;;;;;11.30;99.90;;;;;;5092503;28;19912;-66
2024/01/27 05:50:40;;;;;;;;;;;11.30;99.90;;;;;;5088558;28;19908;-64
2024/01/27 05:53:06;;;;;;;;;;;11.20;99.90;;;;;;5077326;28;19962;-67
2024/01/27 05:55:33;;;;;;;;;;;11.20;99.90;;;;;;5074586;28;19916;-66
2024/01/27 05:58:00;;;;;;;;;;;11.20;99.90;;;;;;5079736;28;19908;-65
2024/01/27 06:00:25;;;;;;;;;;;11.20;99.90;;;;;;5092831;28;19912;-65
2024/01/27 06:02:51;;;;;;;;;;;11.20;99.90;;;;;;5094719;28;19943;-68
2024/01/27 06:05:17;;;;;;;;;;;11.20;99.90;;;;;;5094694;28;19915;-68
2024/01/27 06:07:43;;;;;;;;;;;11.20;99.90;;;;;;5094514;28;19916;-67
2024/01/27 06:10:09;;;;;;;;;;;11.10;99.90;;;;;;5094410;28;19912;-68
2024/01/27 06:12:36;;;;;;;;;;;11.10;99.90;;;;;;5094559;28;19923;-68
2024/01/27 06:15:06;;;;;;;;;;;11.10;99.90;;;;;;5094543;28;20295;-69
2024/01/27 06:17:31;;;;;;;;;;;11.10;99.90;;;;;;5078143;28;20376;-68
2024/01/27 06:20:04;;;;;;;;;;;11.20;99.90;;;;;;5079894;28;19908;-69
2024/01/27 06:22:32;;;;;;;;;;;11.10;99.90;;;;;;5094241;28;20004;-69
2024/01/27 06:24:58;;;;;;;;;;;11.20;99.90;;;;;;5092800;28;19908;-69
2024/01/27 06:27:24;;;;;;;;;;;11.20;99.90;;;;;;5093962;28;19915;-69
2024/01/27 06:29:50;;;;;;;;;;;11.10;99.90;;;;;;5093385;28;19977;-69
2024/01/27 06:32:16;;;;;;;;;;;11.00;99.90;;;;;;5093403;28;20283;-68
2024/01/27 06:34:41;;;;;;;;;;;10.90;99.90;;;;;;5092272;28;19958;-68
2024/01/27 06:37:07;;;;;;;;;;;10.90;99.90;;;;;;5093302;28;20287;-68
2024/01/27 06:39:33;;;;;;;;;;;10.90;99.90;;;;;;5093181;28;20011;-68
2024/01/27 06:41:59;;;;;;;;;;;11.20;99.90;;;;;;5093140;28;20098;-69
2024/01/27 06:44:25;;;;;;;;;;;11.40;99.90;;;;;;5091845;28;19909;-69
2024/01/27 06:46:50;;;;;;;;;;;11.70;99.90;;;;;;5093206;28;19955;-68
2024/01/27 06:49:16;;;;;;;;;;;11.90;99.90;;;;;;5091456;28;19908;-68
2024/01/27 06:51:43;;;;;;;;;;;12.10;99.90;;;;;;5091800;28;19966;-67
2024/01/27 06:54:09;;;;;;;;;;;12.20;99.90;;;;;;5092077;28;19977;-69
2024/01/27 06:56:35;;;;;;;;;;;12.20;99.90;;;;;;5090378;28;20325;-68
2024/01/27 06:59:00;;;;;;;;;;;12.50;99.90;;;;;;5091857;28;19918;-69
2024/01/27 07:01:26;;;;;;;;;;;13.00;99.90;;;;;;5091882;28;19915;-70
2024/01/27 07:03:52;;;;;;;;;;;13.50;99.90;;;;;;5092049;28;19965;-69
2024/01/27 07:06:18;;;;;;;;;;;13.80;99.90;;;;;;5090968;28;19912;-68
2024/01/27 07:08:43;;;;;;;;;;;14.40;99.90;;;;;;5090167;28;20428;-68
2024/01/27 07:11:09;;;;;;;;;;;15.00;99.90;;;;;;5091482;28;19915;-69
2024/01/27 07:13:35;;;;;;;;;;;15.10;99.90;;;;;;5091271;28;20390;-68
2024/01/27 07:16:02;;;;;;;;;;;14.90;99.90;;;;;;5090834;28;19912;-69
2024/01/27 07:18:29;;;;;;;;;;;15.10;99.90;;;;;;5091739;28;19999;-68
2024/01/27 07:20:55;;;;;;;;;;;15.20;99.90;;;;;;5077072;28;19909;-69
2024/01/27 07:23:21;;;;;;;;;;;15.30;99.90;;;;;;5070366;28;20253;-69
2024/01/27 07:25:47;;;;;;;;;;;15.60;99.90;;;;;;5072100;28;20333;-69
2024/01/27 07:28:15;;;;;;;;;;;15.20;99.90;;;;;;5071789;28;20073;-65
2024/01/27 07:30:41;;;;;;;;;;;15.10;99.90;;;;;;5071861;28;20463;-68
2024/01/27 07:33:07;;;;;;;;;;;15.30;99.90;;;;;;5078850;28;20030;-70
2024/01/27 07:35:33;;;;;;;;;;;15.50;99.90;;;;;;5089242;28;19912;-69
2024/01/27 07:37:59;;;;;;;;;;;15.40;99.90;;;;;;5090540;28;19908;-69
2024/01/27 07:40:25;;;;;;;;;;;15.20;99.90;;;;;;5091023;28;20359;-69
2024/01/27 07:42:51;;;;;;;;;;;15.40;99.90;;;;;;5091471;28;19908;-69
2024/01/27 07:45:17;;;;;;;;;;;15.90;99.90;;;;;;5091584;28;19915;-69
2024/01/27 07:47:43;;;;;;;;;;;16.20;99.90;;;;;;5090934;28;20279;-68
2024/01/27 07:50:09;;;;;;;;;;;16.30;99.90;;;;;;5089444;28;20399;-67
2024/01/27 07:52:35;;;;;;;;;;;16.40;99.90;;;;;;5088625;28;19947;-68
2024/01/27 07:55:01;;;;;;;;;;;16.70;99.90;;;;;;5090083;28;20314;-69
2024/01/27 07:57:27;;;;;;;;;;;16.40;99.90;;;;;;5091893;28;19931;-68
2024/01/27 07:59:54;;;;;;;;;;;16.00;99.90;;;;;;5091621;28;19908;-69
2024/01/27 08:02:20;;;;;;;;;;;15.70;99.90;;;;;;5091652;28;20364;-69
2024/01/27 08:04:46;;;;;;;;;;;15.50;99.90;;;;;;5091417;28;19909;-68
2024/01/27 08:07:14;;;;;;;;;;;15.00;99.90;;;;;;5091544;28;19959;-69
2024/01/27 08:09:40;;;;;;;;;;;14.80;99.90;;;;;;5091216;28;19923;-68
2024/01/27 08:12:07;;;;;;;;;;;14.80;99.90;;;;;;5091702;28;19985;-69
2024/01/27 08:14:35;;;;;;;;;;;14.90;99.90;;;;;;5095569;28;19912;-67
2024/01/27 08:17:04;;;;;;;;;;;14.90;99.90;;;;;;5095258;28;20025;-69
2024/01/27 08:19:30;;;;;;;;;;;14.80;99.90;;;;;;5095405;28;19919;-69
2024/01/27 08:21:56;;;;;;;;;;;14.70;99.90;;;;;;5095401;28;19909;-69
2024/01/27 08:24:24;;;;;;;;;;;14.70;99.90;;;;;;5095163;28;19912;-67
2024/01/27 08:26:50;;;;;;;;;;;14.80;99.90;;;;;;5095381;28;19927;-65
2024/01/27 08:29:16;;;;;;;;;;;14.90;99.90;;;;;;5093982;28;19912;-68
2024/01/27 08:31:41;;;;;;;;;;;14.80;99.90;;;;;;5093532;28;19908;-67
2024/01/27 08:34:07;;;;;;;;;;;14.80;99.90;;;;;;5093538;28;19963;-66
2024/01/27 08:36:34;;;;;;;;;;;15.00;99.90;;;;;;5095102;28;19912;-66
2024/01/27 08:39:00;;;;;;;;;;;15.00;99.90;;;;;;5093424;28;19908;-65
2024/01/27 08:41:26;;;;;;;;;;;15.00;99.90;;;;;;5094693;28;19958;-66
2024/01/27 08:43:52;;;;;;;;;;;14.90;99.90;;;;;;5095204;28;19916;-72
2024/01/27 08:46:21;;;;;;;;;;;15.10;99.90;;;;;;5093122;28;20048;-66
2024/01/27 08:48:46;;;;;;;;;;;15.10;99.90;;;;;;5092465;28;19912;-66
2024/01/27 08:51:12;;;;;;;;;;;15.10;99.90;;;;;;5078017;28;19947;-67
2024/01/27 08:53:38;;;;;;;;;;;15.30;99.90;;;;;;5073311;28;19939;-66
2024/01/27 08:56:04;;;;;;;;;;;15.50;99.90;;;;;;5091054;28;19912;-68
2024/01/27 08:58:32;;;;;;;;;;;15.80;99.90;;;;;;5093817;28;20348;-67
2024/01/27 09:01:05;;;;;;;;;;;16.10;99.90;;;;;;5093630;28;19908;-67
2024/01/27 09:03:31;;;;;;;;;;;16.30;99.90;;;;;;5093751;28;20310;-65
2024/01/27 09:05:57;;;;;;;;;;;16.20;99.90;;;;;;5093788;28;20386;-66
2024/01/27 09:08:22;;;;;;;;;;;16.00;99.90;;;;;;5093495;28;20019;-65
2024/01/27 09:10:48;;;;;;;;;;;16.10;99.90;;;;;;5093258;28;19977;-66
2024/01/27 09:13:14;;;;;;;;;;;16.10;99.90;;;;;;5093419;28;19916;-65
2024/01/27 09:15:40;;;;;;;;;;;16.30;99.90;;;;;;5093770;28;19908;-65
2024/01/27 09:18:06;;;;;;;;;;;16.30;99.90;;;;;;5092700;28;19912;-66
2024/01/27 09:20:32;;;;;;;;;;;16.30;99.90;;;;;;5094004;28;20278;-67
2024/01/27 09:22:58;;;;;;;;;;;16.40;99.90;;;;;;5076229;28;19913;-65
2024/01/27 09:25:25;;;;;;;;;;;16.60;99.90;;;;;;5092711;28;19920;-65
2024/01/27 09:27:52;;;;;;;;;;;16.50;99.90;;;;;;5092809;28;20003;-65
2024/01/27 09:30:18;;;;;;;;;;;16.40;99.90;;;;;;5094035;28;19938;-66
2024/01/27 09:32:44;;;;;;;;;;;16.40;99.90;;;;;;5094081;28;19942;-66
2024/01/27 09:35:10;;;;;;;;;;;16.40;99.90;;;;;;5094123;28;19999;-65
2024/01/27 09:37:35;;;;;;;;;;;16.50;99.90;;;;;;5093916;28;19915;-65
2024/01/27 09:40:02;;;;;;;;;;;16.40;99.90;;;;;;5093616;28;20267;-64
2024/01/27 09:42:28;;;;;;;;;;;16.20;99.90;;;;;;5093560;28;20011;-65
2024/01/27 09:44:56;;;;;;;;;;;15.90;99.90;;;;;;5093697;28;19955;-66
2024/01/27 09:47:23;;;;;;;;;;;16.00;99.90;;;;;;5093349;28;20031;-65
2024/01/27 09:49:51;;;;;;;;;;;15.90;99.90;;;;;;5089534;28;19974;-66
2024/01/27 09:52:17;;;;;;;;;;;16.00;99.90;;;;;;5073293;28;19916;-66
2024/01/27 09:54:42;;;;;;;;;;;16.10;99.90;;;;;;5073486;28;20390;-66
2024/01/27 09:57:09;;;;;;;;;;;16.10;99.90;;;;;;5073549;28;20372;-65
2024/01/27 09:59:35;;;;;;;;;;;16.00;99.90;;;;;;5073339;28;20014;-63
2024/01/27 10:02:02;;;;;;;;;;;15.80;99.90;;;;;;5072878;28;19934;-65
2024/01/27 10:04:29;;;;;;;;;;;15.90;99.90;;;;;;5073221;28;19996;-66
2024/01/27 10:06:56;;;;;;;;;;;16.10;99.90;;;;;;5071716;28;19916;-65
2024/01/27 10:09:22;;;;;;;;;;;16.10;99.90;;;;;;5072969;28;19921;-68
2024/01/27 10:11:48;;;;;;;;;;;16.10;99.90;;;;;;5073335;28;19932;-63
2024/01/27 10:14:14;;;;;;;;;;;16.30;99.90;;;;;;5073218;28;19909;-66
2024/01/27 10:16:43;;;;;;;;;;;16.40;99.90;;;;;;5073687;28;19965;-67
2024/01/27 10:19:15;;;;;;;;;;;16.50;99.90;;;;;;5073190;28;19908;-67
2024/01/27 10:21:41;;;;;;;;;;;16.60;99.90;;;;;;5092705;28;20325;-67
2024/01/27 10:24:08;;;;;;;;;;;16.60;99.90;;;;;;5093415;28;20411;-68
2024/01/27 10:26:34;;;;;;;;;;;16.70;99.90;;;;;;5093187;28;19912;-65
2024/01/27 10:29:01;;;;;;;;;;;16.70;99.90;;;;;;5093112;28;19915;-65
2024/01/27 10:31:28;;;;;;;;;;;16.70;99.90;;;;;;5091210;28;20038;-68
2024/01/27 10:33:54;;;;;;;;;;;17.00;99.90;;;;;;5093239;28;20320;-65
2024/01/27 10:36:21;;;;;;;;;;;16.90;99.90;;;;;;5093094;28;19961;-66
2024/01/27 10:38:46;;;;;;;;;;;16.70;99.90;;;;;;5093082;28;19908;-66
2024/01/27 10:41:14;;;;;;;;;;;16.70;99.90;;;;;;5092817;28;19931;-68
2024/01/27 10:43:40;;;;;;;;;;;16.80;99.90;;;;;;5091618;28;20002;-66
2024/01/27 10:46:07;;;;;;;;;;;17.10;99.90;;;;;;5093100;28;19958;-66
2024/01/27 10:48:36;;;;;;;;;;;17.50;99.90;;;;;;5092915;28;19955;-66
2024/01/27 10:51:10;;;;;;;;;;;17.80;99.90;;;;;;5092764;28;19958;-66
2024/01/27 10:53:37;;;;;;;;;;;17.90;99.90;;;;;;5092735;28;20305;-61
2024/01/27 10:56:06;;;;;;;;;;;18.10;99.90;;;;;;5092370;28;19912;-66
2024/01/27 10:58:35;;;;;;;;;;;18.00;99.90;;;;;;5092834;28;19908;-66
2024/01/27 11:01:01;;;;;;;;;;;17.60;99.90;;;;;;5092736;28;20041;-66
2024/01/27 11:03:28;;;;;;;;;;;17.80;99.90;;;;;;5092609;28;20011;-67
2024/01/27 11:05:55;;;;;;;;;;;17.90;99.90;;;;;;5092357;28;19930;-66
2024/01/27 11:08:24;;;;;;;;;;;17.90;99.90;;;;;;5092012;28;19920;-66
2024/01/27 11:10:50;;;;;;;;;;;18.10;99.90;;;;;;5092216;28;19974;-67
2024/01/27 11:13:18;;;;;;;;;;;18.30;99.90;;;;;;5091440;28;20416;-66
2024/01/27 11:15:53;;;;;;;;;;;18.40;99.90;;;;;;5092146;28;20268;-66
2024/01/27 11:18:19;;;;;;;;;;;18.40;99.90;;;;;;5091967;28;20007;-66
2024/01/27 11:20:45;;;;;;;;;;;18.60;99.90;;;;;;5091299;28;19998;-67
2024/01/27 11:23:13;;;;;;;;;;;18.80;99.90;;;;;;5092206;28;19959;-67
2024/01/27 11:25:39;;;;;;;;;;;18.70;99.90;;;;;;5092230;28;19915;-67
2024/01/27 11:28:15;;;;;;;;;;;18.50;99.90;;;;;;5092071;28;19908;-68
2024/01/27 11:30:48;;;;;;;;;;;18.50;99.90;;;;;;5092280;28;20011;-68
2024/01/27 11:33:13;;;;;;;;;;;18.60;99.90;;;;;;5092200;28;20390;-68
2024/01/27 11:35:39;;;;;;;;;;;18.70;99.90;;;;;;5092221;28;19973;-66
2024/01/27 11:38:05;;;;;;;;;;;18.90;99.90;;;;;;5090829;28;19908;-67
2024/01/27 11:40:32;;;;;;;;;;;18.90;99.90;;;;;;5092018;28;19908;-66
2024/01/27 11:43:02;;;;;;;;;;;19.10;99.90;;;;;;5092133;28;19908;-67
2024/01/27 11:45:32;;;;;;;;;;;19.00;99.90;;;;;;5090914;28;19912;-66
2024/01/27 11:48:00;;;;;;;;;;;19.10;99.90;;;;;;5091351;28;20433;-65
2024/01/27 11:50:26;;;;;;;;;;;19.00;99.90;;;;;;5092126;28;20387;-67
2024/01/27 11:52:51;;;;;;;;;;;19.00;99.90;;;;;;5091426;28;19916;-66
2024/01/27 11:55:19;;;;;;;;;;;18.90;99.90;;;;;;5091904;28;19908;-67
2024/01/27 11:57:45;;;;;;;;;;;18.90;99.90;;;;;;5091887;28;19908;-65
2024/01/27 12:00:11;;;;;;;;;;;18.80;99.90;;;;;;5091875;28;19912;-67
2024/01/27 12:02:39;;;;;;;;;;;18.90;99.90;;;;;;5091778;28;20045;-66
2024/01/27 12:05:05;;;;;;;;;;;19.10;99.90;;;;;;5091797;28;19944;-65
2024/01/27 12:07:31;;;;;;;;;;;19.20;99.90;;;;;;5091853;28;19915;-66
2024/01/27 12:09:57;;;;;;;;;;;19.30;99.90;;;;;;5091658;28;19920;-65
2024/01/27 12:12:23;;;;;;;;;;;19.20;99.90;;;;;;5091511;28;20023;-65
2024/01/27 12:14:50;;;;;;;;;;;19.00;99.90;;;;;;5091248;28;19916;-66
2024/01/27 12:17:16;;;;;;;;;;;18.90;99.90;;;;;;5092018;28;19908;-66
2024/01/27 12:19:48;;;;;;;;;;;18.70;99.90;;;;;;5092146;28;20246;-66
2024/01/27 12:22:27;;;;;;;;;;;18.60;99.90;;;;;;5091813;28;19939;-66
2024/01/27 12:25:09;;;;;;;;;;;18.70;99.90;;;;;;5090465;28;20030;-66
2024/01/27 12:27:35;;;;;;;;;;;18.80;99.90;;;;;;5091848;28;20352;-66
2024/01/27 12:30:02;;;;;;;;;;;18.60;99.90;;;;;;5092390;28;19912;-66
2024/01/27 12:32:27;;;;;;;;;;;18.50;99.90;;;;;;5092145;28;19923;-66
2024/01/27 12:35:00;;;;;;;;;;;18.60;99.90;;;;;;5092109;28;19912;-66
2024/01/27 12:37:26;;;;;;;;;;;18.70;99.90;;;;;;5091772;28;19908;-67
2024/01/27 12:39:52;;;;;;;;;;;18.90;99.90;;;;;;5091617;28;19915;-66
2024/01/27 12:42:18;;;;;;;;;;;19.00;99.90;;;;;;5091810;28;19908;-66
2024/01/27 12:44:44;;;;;;;;;;;19.00;99.90;;;;;;5090609;28;19916;-65
2024/01/27 12:47:10;;;;;;;;;;;19.00;99.90;;;;;;5091593;28;19909;-67
2024/01/27 12:49:36;;;;;;;;;;;18.90;99.90;;;;;;5091388;28;19915;-65
2024/01/27 12:52:02;;;;;;;;;;;18.90;99.90;;;;;;5091912;28;19996;-66
2024/01/27 12:54:29;;;;;;;;;;;19.00;99.90;;;;;;5092818;28;19908;-67
2024/01/27 12:56:56;;;;;;;;;;;19.10;99.90;;;;;;5092235;28;20344;-68
2024/01/27 12:59:24;;;;;;;;;;;18.90;99.90;;;;;;5094167;28;19908;-67
2024/01/27 13:01:52;;;;;;;;;;;18.90;99.90;;;;;;5095910;28;20020;-67
2024/01/27 13:04:18;;;;;;;;;;;19.00;99.90;;;;;;5095763;28;19908;-67
2024/01/27 13:06:44;;;;;;;;;;;18.80;99.90;;;;;;5095629;28;19931;-67
2024/01/27 13:09:13;;;;;;;;;;;19.00;99.90;;;;;;5094262;28;19931;-67
2024/01/27 13:11:39;;;;;;;;;;;19.10;99.90;;;;;;5095502;28;20398;-67
2024/01/27 13:14:06;;;;;;;;;;;19.00;99.90;;;;;;5095534;28;19916;-67
2024/01/27 13:16:32;;;;;;;;;;;19.00;99.90;;;;;;5095678;28;19908;-66
2024/01/27 13:18:58;;;;;;;;;;;19.10;99.90;;;;;;5095874;28;19915;-66
2024/01/27 13:21:24;;;;;;;;;;;19.10;99.90;;;;;;5094417;28;19908;-63
2024/01/27 13:23:52;;;;;;;;;;;19.00;99.90;;;;;;5096062;28;19961;-64
2024/01/27 13:26:18;;;;;;;;;;;19.00;99.90;;;;;;5095642;28;20360;-65
2024/01/27 13:28:44;;;;;;;;;;;19.00;99.90;;;;;;5095890;28;19966;-65
2024/01/27 13:31:10;;;;;;;;;;;18.70;99.90;;;;;;5095646;28;19908;-66
2024/01/27 13:33:36;;;;;;;;;;;18.60;99.90;;;;;;5077007;28;19927;-66
2024/01/27 13:36:02;;;;;;;;;;;18.70;99.90;;;;;;5095631;28;19908;-66
2024/01/27 13:38:29;;;;;;;;;;;18.80;99.90;;;;;;5095257;28;20352;-62
2024/01/27 13:40:55;;;;;;;;;;;18.80;99.90;;;;;;5093958;28;19916;-65
2024/01/27 13:43:20;;;;;;;;;;;18.90;99.90;;;;;;5094060;28;19973;-66
2024/01/27 13:45:47;;;;;;;;;;;18.90;99.90;;;;;;5095509;28;19916;-68
2024/01/27 13:48:13;;;;;;;;;;;18.90;99.90;;;;;;5095397;28;20199;-66
2024/01/27 13:50:39;;;;;;;;;;;18.90;99.90;;;;;;5084446;28;20396;-66
2024/01/27 13:53:06;;;;;;;;;;;18.80;99.90;;;;;;5073564;28;20273;-66
2024/01/27 13:55:32;;;;;;;;;;;18.70;99.90;;;;;;5074893;28;19917;-66
2024/01/27 13:57:57;;;;;;;;;;;18.70;99.90;;;;;;5075025;28;19913;-68
2024/01/27 14:00:23;;;;;;;;;;;18.70;99.90;;;;;;5073792;28;20010;-65
2024/01/27 14:02:49;;;;;;;;;;;18.70;99.90;;;;;;5074990;28;19912;-67
2024/01/27 14:05:15;;;;;;;;;;;18.80;99.90;;;;;;5074805;28;19909;-67
2024/01/27 14:07:41;;;;;;;;;;;18.80;99.90;;;;;;5074647;28;19912;-66
2024/01/27 14:10:07;;;;;;;;;;;18.70;99.90;;;;;;5073843;28;19952;-68
2024/01/27 14:12:33;;;;;;;;;;;18.60;99.90;;;;;;5073442;28;19917;-67